createdAt,value
2019-05-11T00:01:00.530Z,7.05
2019-05-11T00:03:29.179Z,7.40
2019-05-11T00:06:01.869Z,10.05
2019-05-11T00:08:30.656Z,7.30
2019-05-11T00:10:59.647Z,7.15
2019-05-11T00:13:28.791Z,7.17
2019-05-11T00:15:57.914Z,7.05
2019-05-11T00:18:27.123Z,6.83
2019-05-11T00:20:56.047Z,6.70
2019-05-11T00:23:24.972Z,7.00
2019-05-11T00:25:54.071Z,7.12
2019-05-11T00:28:22.968Z,6.50
2019-05-11T00:30:51.724Z,6.87
2019-05-11T00:33:20.534Z,7.37
2019-05-11T00:35:49.458Z,7.42
2019-05-11T00:38:18.200Z,7.80
2019-05-11T00:40:47.402Z,7.08
2019-05-11T00:43:16.291Z,8.53
2019-05-11T00:45:46.859Z,8.38
2019-05-11T00:48:15.802Z,7.55
2019-05-11T00:50:44.601Z,7.55
2019-05-11T00:53:13.520Z,8.08
2019-05-11T00:55:43.290Z,7.90
2019-05-11T00:58:12.312Z,8.18
2019-05-11T01:00:41.350Z,8.18
2019-05-11T01:03:10.615Z,7.80
2019-05-11T01:05:39.977Z,7.65
2019-05-11T01:08:09.034Z,7.87
2019-05-11T01:10:42.025Z,8.68
2019-05-11T01:13:08.265Z,8.03
2019-05-11T01:15:37.095Z,7.72
2019-05-11T01:18:06.281Z,8.35
2019-05-11T01:20:35.210Z,8.13
2019-05-11T01:23:04.478Z,8.40
2019-05-11T01:25:33.581Z,8.93
2019-05-11T01:28:02.480Z,8.65
2019-05-11T01:30:31.271Z,8.05
2019-05-11T01:33:00.281Z,9.13
2019-05-11T01:35:29.135Z,9.10
2019-05-11T01:37:58.032Z,8.20
2019-05-11T01:40:27.650Z,8.40
2019-05-11T01:42:56.332Z,8.35
2019-05-11T01:45:25.110Z,8.40
2019-05-11T01:47:59.938Z,7.92
2019-05-11T01:50:28.975Z,7.03
2019-05-11T01:52:58.072Z,7.20
2019-05-11T01:55:28.458Z,6.97
2019-05-11T01:57:57.394Z,7.62
2019-05-11T02:00:26.404Z,7.65
2019-05-11T02:02:55.550Z,7.58
2019-05-11T02:05:31.300Z,7.60
2019-05-11T02:08:00.914Z,7.37
2019-05-11T02:10:30.225Z,6.72
2019-05-11T02:13:00.033Z,7.40
2019-05-11T02:15:29.499Z,7.22
2019-05-11T02:17:58.486Z,7.90
2019-05-11T02:20:27.406Z,8.00
2019-05-11T02:22:56.428Z,8.18
2019-05-11T02:25:25.389Z,7.65
2019-05-11T02:27:54.463Z,7.78
2019-05-11T02:30:23.373Z,7.53
2019-05-11T02:32:52.151Z,7.65
2019-05-11T02:35:20.877Z,8.10
2019-05-11T02:37:49.904Z,7.58
2019-05-11T02:40:18.836Z,7.87
2019-05-11T02:42:47.509Z,8.63
2019-05-11T02:45:17.763Z,7.95
2019-05-11T02:47:46.665Z,8.50
2019-05-11T02:50:15.306Z,8.85
2019-05-11T02:52:44.501Z,9.53
2019-05-11T02:55:13.564Z,8.98
2019-05-11T02:57:42.569Z,9.03
2019-05-11T03:00:11.629Z,8.68
2019-05-11T03:02:40.748Z,8.53
2019-05-11T03:05:09.784Z,8.95
2019-05-11T03:07:38.569Z,9.08
2019-05-11T03:10:07.668Z,8.83
2019-05-11T03:12:36.619Z,9.43
2019-05-11T03:15:08.082Z,8.95
2019-05-11T03:17:36.997Z,9.58
2019-05-11T03:20:06.943Z,9.20
2019-05-11T03:22:35.699Z,9.28
2019-05-11T03:25:06.030Z,9.38
2019-05-11T03:27:35.188Z,8.95
2019-05-11T03:30:05.355Z,9.40
2019-05-11T03:32:34.232Z,9.43
2019-05-11T03:35:03.219Z,10.20
2019-05-11T03:37:32.188Z,11.15
2019-05-11T03:40:01.175Z,9.93
2019-05-11T03:42:29.962Z,9.70
2019-05-11T03:44:58.857Z,9.98
2019-05-11T03:47:27.750Z,10.23
2019-05-11T03:49:57.026Z,9.83
2019-05-11T03:52:26.412Z,9.78
2019-05-11T03:54:55.053Z,9.80
2019-05-11T03:57:24.078Z,8.85
2019-05-11T03:59:53.075Z,9.43
2019-05-11T04:02:24.432Z,9.45
2019-05-11T04:04:53.457Z,9.28
2019-05-11T04:07:22.754Z,9.55
2019-05-11T04:09:51.855Z,9.03
2019-05-11T04:12:34.087Z,10.78
2019-05-11T04:14:51.369Z,9.98
2019-05-11T04:17:21.622Z,10.05
2019-05-11T04:19:51.469Z,9.15
2019-05-11T04:22:20.706Z,9.10
2019-05-11T04:24:49.622Z,8.95
2019-05-11T04:27:19.664Z,9.78
2019-05-11T04:29:49.143Z,9.88
2019-05-11T04:32:17.935Z,9.95
2019-05-11T04:34:46.789Z,9.78
2019-05-11T04:37:15.979Z,10.08
2019-05-11T04:39:44.905Z,10.45
2019-05-11T04:42:13.663Z,10.70
2019-05-11T04:44:42.785Z,10.98
2019-05-11T04:47:11.585Z,10.50
2019-05-11T04:49:40.471Z,10.75
2019-05-11T04:52:09.557Z,10.72
2019-05-11T04:54:38.314Z,9.65
2019-05-11T04:57:07.311Z,10.70
2019-05-11T04:59:36.803Z,10.45
2019-05-11T05:02:05.815Z,10.25
2019-05-11T05:04:34.762Z,10.23
2019-05-11T05:07:05.410Z,9.70
2019-05-11T05:09:36.005Z,10.15
2019-05-11T05:12:08.538Z,9.60
2019-05-11T05:14:35.205Z,10.43
2019-05-11T05:17:04.063Z,9.58
2019-05-11T05:19:32.771Z,9.05
2019-05-11T05:22:01.459Z,9.38
2019-05-11T05:24:30.115Z,10.10
2019-05-11T05:26:59.235Z,13.08
2019-05-11T05:29:28.343Z,9.63
2019-05-11T05:31:57.257Z,10.15
2019-05-11T05:34:26.412Z,9.63
2019-05-11T05:36:55.316Z,9.90
2019-05-11T05:39:24.371Z,9.90
2019-05-11T05:41:56.989Z,10.88
2019-05-11T05:44:27.520Z,9.78
2019-05-11T05:46:54.352Z,9.68
2019-05-11T05:49:23.220Z,10.58
2019-05-11T05:51:52.107Z,10.45
2019-05-11T05:54:21.251Z,11.33
2019-05-11T05:56:49.900Z,11.43
2019-05-11T05:59:19.177Z,10.48
2019-05-11T06:01:48.180Z,11.80
2019-05-11T06:04:18.608Z,10.58
2019-05-11T06:06:47.902Z,11.10
2019-05-11T06:09:16.892Z,10.10
2019-05-11T06:11:46.090Z,9.73
2019-05-11T06:14:15.180Z,10.78
2019-05-11T06:16:43.973Z,10.48
2019-05-11T06:19:12.929Z,11.60
2019-05-11T06:21:42.195Z,9.98
2019-05-11T06:24:11.353Z,10.05
2019-05-11T06:26:40.426Z,10.48
2019-05-11T06:29:09.503Z,10.05
2019-05-11T06:31:38.456Z,16.12
2019-05-11T06:34:07.541Z,10.00
2019-05-11T06:36:36.586Z,10.05
2019-05-11T06:39:07.835Z,9.40
2019-05-11T06:41:37.686Z,9.18
2019-05-11T06:44:07.146Z,8.73
2019-05-11T06:46:36.053Z,9.40
2019-05-11T06:49:04.891Z,8.80
2019-05-11T06:51:33.984Z,9.40
2019-05-11T06:54:02.900Z,8.33
2019-05-11T06:56:31.862Z,7.70
2019-05-11T06:59:00.736Z,7.37
2019-05-11T07:01:29.517Z,8.28
2019-05-11T07:03:58.331Z,9.90
2019-05-11T07:06:30.553Z,10.10
2019-05-11T07:08:58.172Z,8.50
2019-05-11T07:11:27.123Z,7.58
2019-05-11T07:13:56.274Z,7.80
2019-05-11T07:16:25.038Z,7.78
2019-05-11T07:19:00.280Z,7.60
2019-05-11T07:21:29.051Z,7.22
2019-05-11T07:23:58.213Z,8.45
2019-05-11T07:26:27.157Z,8.08
2019-05-11T07:28:56.112Z,7.37
2019-05-11T07:31:25.250Z,7.37
2019-05-11T07:33:54.215Z,6.95
2019-05-11T07:36:22.956Z,6.05
2019-05-11T07:38:51.950Z,7.25
2019-05-11T07:41:20.888Z,5.97
2019-05-11T07:43:49.689Z,6.08
2019-05-11T07:46:18.550Z,6.05
2019-05-11T07:48:48.426Z,6.50
2019-05-11T07:51:18.266Z,6.35
2019-05-11T07:53:48.693Z,6.50
2019-05-11T07:56:18.739Z,6.20
2019-05-11T07:58:48.173Z,6.05
2019-05-11T08:01:18.889Z,6.20
2019-05-11T08:03:48.360Z,6.53
2019-05-11T08:06:18.478Z,5.03
2019-05-11T08:08:49.003Z,4.67
2019-05-11T08:11:18.363Z,5.10
2019-05-11T08:13:48.141Z,4.62
2019-05-11T08:16:18.585Z,4.60
2019-05-11T08:18:48.419Z,4.15
2019-05-11T08:21:17.988Z,4.35
2019-05-11T08:23:48.390Z,5.30
2019-05-11T08:26:19.242Z,4.12
2019-05-11T08:28:48.721Z,4.72
2019-05-11T08:31:18.789Z,4.40
2019-05-11T08:33:48.289Z,4.28
2019-05-11T08:36:18.424Z,4.97
2019-05-11T08:38:49.139Z,4.53
2019-05-11T08:41:18.641Z,5.10
2019-05-11T08:43:48.180Z,4.97
2019-05-11T08:46:18.604Z,4.28
2019-05-11T08:48:47.980Z,4.67
2019-05-11T08:51:18.676Z,4.22
2019-05-11T08:53:50.302Z,4.20
2019-05-11T08:56:19.079Z,4.17
2019-05-11T08:58:49.208Z,4.20
2019-05-11T09:01:18.925Z,4.45
2019-05-11T09:03:48.106Z,4.42
2019-05-11T09:06:17.954Z,3.75
2019-05-11T09:08:49.369Z,4.17
2019-05-11T09:11:19.014Z,4.10
2019-05-11T09:13:49.014Z,4.35
2019-05-11T09:16:18.985Z,5.28
2019-05-11T09:18:48.220Z,4.75
2019-05-11T09:21:18.977Z,5.53
2019-05-11T09:23:48.744Z,4.80
2019-05-11T09:26:18.535Z,4.58
2019-05-11T09:28:47.918Z,3.95
2019-05-11T09:31:18.848Z,4.12
2019-05-11T09:33:47.933Z,3.90
2019-05-11T09:36:18.101Z,3.52
2019-05-11T09:38:48.902Z,4.37
2019-05-11T09:41:18.141Z,4.37
2019-05-11T09:43:48.371Z,4.60
2019-05-11T09:46:18.935Z,4.92
2019-05-11T09:48:48.327Z,4.33
2019-05-11T09:51:18.390Z,4.20
2019-05-11T09:53:48.465Z,4.05
2019-05-11T09:56:18.500Z,3.45
2019-05-11T09:58:48.752Z,4.17
2019-05-11T10:01:18.408Z,4.25
2019-05-11T10:03:48.318Z,4.15
2019-05-11T10:06:19.047Z,4.37
2019-05-11T10:08:48.783Z,4.17
2019-05-11T10:11:19.135Z,3.70
2019-05-11T10:13:48.593Z,4.03
2019-05-11T10:16:18.052Z,3.37
2019-05-11T10:18:49.195Z,3.45
2019-05-11T10:21:18.745Z,3.52
2019-05-11T10:23:48.937Z,3.83
2019-05-11T10:26:18.841Z,3.25
2019-05-11T10:28:48.418Z,3.58
2019-05-11T10:31:18.070Z,3.80
2019-05-11T10:33:48.934Z,3.58
2019-05-11T10:36:18.957Z,3.08
2019-05-11T10:38:48.860Z,2.92
2019-05-11T10:41:18.507Z,2.85
2019-05-11T10:43:48.988Z,2.50
2019-05-11T10:46:22.873Z,2.45
2019-05-11T10:48:49.413Z,3.20
2019-05-11T10:51:18.602Z,3.20
2019-05-11T10:53:51.301Z,3.08
2019-05-11T10:56:19.961Z,3.17
2019-05-11T10:58:49.006Z,3.05
2019-05-11T11:01:18.362Z,3.42
2019-05-11T11:03:48.402Z,2.90
2019-05-11T11:06:18.913Z,2.30
2019-05-11T11:08:48.794Z,3.00
2019-05-11T11:11:18.620Z,3.12
2019-05-11T11:13:48.139Z,2.92
2019-05-11T11:16:35.242Z,2.92
2019-05-11T11:18:49.436Z,3.12
2019-05-11T11:21:22.557Z,2.80
2019-05-11T11:23:48.921Z,2.50
2019-05-11T11:26:18.546Z,2.37
2019-05-11T11:28:47.992Z,1.70
2019-05-11T11:31:18.683Z,2.08
2019-05-11T11:33:49.322Z,1.85
2019-05-11T11:36:18.479Z,1.98
2019-05-11T11:38:47.755Z,2.10
2019-05-11T11:41:18.624Z,1.90
2019-05-11T11:43:48.533Z,1.72
2019-05-11T11:46:18.742Z,2.08
2019-05-11T11:48:48.976Z,2.20
2019-05-11T11:51:18.890Z,2.27
2019-05-11T11:53:48.174Z,1.80
2019-05-11T11:56:19.148Z,2.00
2019-05-11T11:58:48.904Z,1.85
2019-05-11T12:01:20.161Z,1.98
2019-05-11T12:03:49.246Z,2.05
2019-05-11T12:06:23.113Z,1.82
2019-05-11T12:08:52.272Z,2.50
2019-05-11T12:11:21.390Z,1.70
2019-05-11T12:13:50.507Z,1.55
2019-05-11T12:16:19.238Z,1.47
2019-05-11T12:18:48.695Z,1.57
2019-05-11T12:21:18.594Z,1.77
2019-05-11T12:23:50.271Z,1.90
2019-05-11T12:26:19.752Z,1.30
2019-05-11T12:28:49.129Z,1.30
2019-05-11T12:31:18.742Z,1.80
2019-05-11T12:33:48.479Z,1.80
2019-05-11T12:36:18.692Z,1.42
2019-05-11T12:38:48.796Z,1.60
2019-05-11T12:41:18.952Z,1.50
2019-05-11T12:43:48.860Z,1.60
2019-05-11T12:46:19.056Z,1.47
2019-05-11T12:48:48.670Z,1.60
2019-05-11T12:51:18.556Z,2.37
2019-05-11T12:53:48.275Z,2.62
2019-05-11T12:56:18.973Z,1.90
2019-05-11T12:58:49.147Z,1.60
2019-05-11T13:01:20.051Z,2.50
2019-05-11T13:03:49.537Z,2.35
2019-05-11T13:06:19.325Z,1.60
2019-05-11T13:08:48.972Z,22.67
2019-05-11T13:11:20.326Z,3.27
2019-05-11T13:13:50.377Z,2.10
2019-05-11T13:16:19.446Z,11.55
2019-05-11T13:18:48.931Z,2.70
2019-05-11T13:21:18.365Z,2.30
2019-05-11T13:23:48.840Z,2.80
2019-05-11T13:26:18.032Z,2.33
2019-05-11T13:28:48.419Z,1.60
2019-05-11T13:31:18.728Z,2.12
2019-05-11T13:33:48.206Z,1.60
2019-05-11T13:36:18.691Z,1.65
2019-05-11T13:38:48.239Z,1.62
2019-05-11T13:41:18.961Z,1.62
2019-05-11T13:43:48.527Z,1.87
2019-05-11T13:46:17.934Z,2.22
2019-05-11T13:48:47.847Z,3.17
2019-05-11T13:51:18.235Z,1.98
2019-05-11T13:53:48.159Z,1.62
2019-05-11T13:56:18.429Z,1.30
2019-05-11T13:58:49.919Z,1.95
2019-05-11T14:01:21.872Z,1.77
2019-05-11T14:03:50.640Z,5.47
2019-05-11T14:06:22.687Z,2.70
2019-05-11T14:08:51.637Z,2.30
2019-05-11T14:11:21.150Z,2.58
2019-05-11T14:13:50.181Z,2.50
2019-05-11T14:16:19.876Z,3.35
2019-05-11T14:18:49.495Z,19.90
2019-05-11T14:21:19.739Z,11.68
2019-05-11T14:23:50.259Z,3.67
2019-05-11T14:26:19.856Z,2.30
2019-05-11T14:28:50.437Z,1.75
2019-05-11T14:31:19.887Z,2.10
2019-05-11T14:33:49.232Z,2.10
2019-05-11T14:36:18.582Z,2.25
2019-05-11T14:38:48.677Z,2.87
2019-05-11T14:41:18.453Z,2.45
2019-05-11T14:43:49.048Z,2.50
2019-05-11T14:46:18.361Z,2.50
2019-05-11T14:48:48.095Z,2.30
2019-05-11T14:51:18.015Z,2.95
2019-05-11T14:53:48.312Z,4.72
2019-05-11T14:56:19.012Z,3.22
2019-05-11T14:58:49.232Z,3.20
2019-05-11T15:01:19.998Z,2.45
2019-05-11T15:03:48.909Z,2.72
2019-05-11T15:06:18.808Z,2.67
2019-05-11T15:08:48.433Z,2.90
2019-05-11T15:11:19.143Z,2.90
2019-05-11T15:13:48.852Z,3.08
2019-05-11T15:16:18.751Z,3.17
2019-05-11T15:18:48.709Z,3.12
2019-05-11T15:21:18.938Z,3.62
2019-05-11T15:23:48.387Z,2.83
2019-05-11T15:26:18.671Z,2.70
2019-05-11T15:28:48.601Z,2.75
2019-05-11T15:31:22.100Z,3.00
2019-05-11T15:33:49.256Z,2.80
2019-05-11T15:36:19.304Z,2.92
2019-05-11T15:38:48.988Z,2.87
2019-05-11T15:41:18.007Z,3.08
2019-05-11T15:43:48.045Z,3.42
2019-05-11T15:46:19.737Z,3.33
2019-05-11T15:48:56.701Z,3.58
2019-05-11T15:51:18.766Z,4.20
2019-05-11T15:53:50.229Z,4.10
2019-05-11T15:56:18.989Z,3.90
2019-05-11T15:58:48.778Z,4.25
2019-05-11T16:01:18.649Z,4.28
2019-05-11T16:03:50.073Z,4.40
2019-05-11T16:06:18.804Z,4.03
2019-05-11T16:08:47.787Z,3.98
2019-05-11T16:11:18.088Z,4.85
2019-05-11T16:13:48.386Z,4.70
2019-05-11T16:16:18.134Z,5.05
2019-05-11T16:18:50.708Z,8.98
2019-05-11T16:21:19.790Z,6.20
2019-05-11T16:23:49.061Z,4.87
2019-05-11T16:26:20.271Z,4.87
2019-05-11T16:28:50.808Z,4.62
2019-05-11T16:31:19.823Z,5.40
2019-05-11T16:33:49.246Z,5.58
2019-05-11T16:36:18.326Z,5.70
2019-05-11T16:38:48.341Z,6.10
2019-05-11T16:41:17.892Z,6.92
2019-05-11T16:43:48.094Z,6.00
2019-05-11T16:46:17.718Z,5.30
2019-05-11T16:48:47.112Z,4.97
2019-05-11T16:51:17.714Z,5.40
2019-05-11T16:53:48.106Z,5.28
2019-05-11T16:56:16.962Z,4.87
2019-05-11T16:58:48.328Z,4.30
2019-05-11T17:01:18.650Z,5.42
2019-05-11T17:03:48.189Z,5.42
2019-05-11T17:06:19.556Z,5.17
2019-05-11T17:08:48.703Z,5.22
2019-05-11T17:11:18.669Z,5.85
2019-05-11T17:13:48.313Z,7.12
2019-05-11T17:16:18.079Z,6.37
2019-05-11T17:18:48.276Z,6.50
2019-05-11T17:21:18.313Z,6.45
2019-05-11T17:23:48.830Z,6.50
2019-05-11T17:26:19.072Z,6.87
2019-05-11T17:28:48.992Z,6.83
2019-05-11T17:31:20.761Z,8.35
2019-05-11T17:33:49.444Z,8.28
2019-05-11T17:36:18.817Z,8.93
2019-05-11T17:38:48.115Z,9.80
2019-05-11T17:41:16.947Z,9.35
2019-05-11T17:43:47.953Z,9.10
2019-05-11T17:46:18.404Z,9.15
2019-05-11T17:48:47.413Z,9.60
2019-05-11T17:51:21.846Z,9.30
2019-05-11T17:53:48.219Z,12.00
2019-05-11T17:56:19.011Z,10.48
2019-05-11T17:58:48.585Z,10.48
2019-05-11T18:01:18.629Z,11.38
2019-05-11T18:03:48.224Z,10.23
2019-05-11T18:06:18.464Z,10.28
2019-05-11T18:08:47.883Z,10.35
2019-05-11T18:11:18.546Z,11.08
2019-05-11T18:13:48.307Z,11.03
2019-05-11T18:16:18.746Z,11.03
2019-05-11T18:18:48.839Z,10.78
2019-05-11T18:21:18.813Z,11.22
2019-05-11T18:23:48.504Z,10.32
2019-05-11T18:26:18.089Z,11.83
2019-05-11T18:28:48.304Z,11.00
2019-05-11T18:31:18.196Z,11.55
2019-05-11T18:33:48.674Z,12.90
2019-05-11T18:36:18.692Z,12.07
2019-05-11T18:38:49.392Z,12.95
2019-05-11T18:41:18.359Z,13.45
2019-05-11T18:43:48.399Z,12.20
2019-05-11T18:46:17.449Z,12.90
2019-05-11T18:48:48.500Z,13.03
2019-05-11T18:51:16.920Z,12.78
2019-05-11T18:53:48.243Z,12.78
2019-05-11T18:56:18.209Z,13.05
2019-05-11T18:58:48.199Z,13.32
2019-05-11T19:01:17.981Z,13.18
2019-05-11T19:03:47.954Z,13.30
2019-05-11T19:06:20.287Z,15.18
2019-05-11T19:08:49.405Z,14.65
2019-05-11T19:11:18.995Z,13.95
2019-05-11T19:13:48.309Z,14.13
2019-05-11T19:16:18.625Z,15.15
2019-05-11T19:18:48.483Z,15.60
2019-05-11T19:21:18.134Z,15.55
2019-05-11T19:23:48.679Z,16.40
2019-05-11T19:26:19.538Z,16.70
2019-05-11T19:28:48.588Z,16.62
2019-05-11T19:31:19.144Z,17.02
2019-05-11T19:33:48.887Z,16.85
2019-05-11T19:36:19.408Z,17.17
2019-05-11T19:38:48.944Z,17.50
2019-05-11T19:41:18.702Z,17.45
2019-05-11T19:43:48.708Z,17.45
2019-05-11T19:46:18.367Z,17.02
2019-05-11T19:48:47.994Z,17.75
2019-05-11T19:51:20.469Z,17.05
2019-05-11T19:53:50.262Z,16.77
2019-05-11T19:56:20.893Z,18.65
2019-05-11T19:58:52.493Z,17.62
2019-05-11T20:01:22.128Z,16.55
2019-05-11T20:03:51.483Z,16.48
2019-05-11T20:06:20.828Z,16.67
2019-05-11T20:08:50.116Z,17.27
2019-05-11T20:11:19.579Z,16.70
2019-05-11T20:13:48.785Z,16.75
2019-05-11T20:16:18.773Z,16.15
2019-05-11T20:18:48.065Z,18.02
2019-05-11T20:21:22.575Z,18.23
2019-05-11T20:23:48.514Z,16.93
2019-05-11T20:26:18.114Z,16.65
2019-05-11T20:28:48.298Z,16.27
2019-05-11T20:31:18.394Z,15.72
2019-05-11T20:33:47.725Z,16.30
2019-05-11T20:36:17.774Z,16.77
2019-05-11T20:38:47.617Z,16.67
2019-05-11T20:41:17.254Z,15.85
2019-05-11T20:43:46.375Z,15.80
2019-05-11T20:46:15.168Z,16.25
2019-05-11T20:48:44.380Z,16.10
2019-05-11T20:51:13.148Z,15.98
2019-05-11T20:53:42.245Z,16.27
2019-05-11T20:56:11.117Z,15.70
2019-05-11T20:58:59.321Z,16.82
2019-05-11T21:01:28.606Z,21.70
2019-05-11T21:03:58.619Z,17.42
2019-05-11T21:06:29.478Z,16.82
2019-05-11T21:08:58.725Z,16.45
2019-05-11T21:11:27.468Z,16.27
2019-05-11T21:13:56.514Z,16.62
2019-05-11T21:16:25.388Z,16.75
2019-05-11T21:18:54.094Z,17.27
2019-05-11T21:21:22.802Z,17.23
2019-05-11T21:23:51.407Z,14.90
2019-05-11T21:26:20.587Z,16.57
2019-05-11T21:28:49.440Z,15.63
2019-05-11T21:31:18.807Z,15.48
2019-05-11T21:33:47.885Z,14.47
2019-05-11T21:36:18.008Z,14.83
2019-05-11T21:38:48.236Z,15.03
2019-05-11T21:41:17.371Z,15.00
2019-05-11T21:43:48.205Z,15.13
2019-05-11T21:46:18.129Z,15.28
2019-05-11T21:48:47.793Z,14.90
2019-05-11T21:51:18.176Z,14.58
2019-05-11T21:53:48.655Z,14.73
2019-05-11T21:56:18.723Z,14.95
2019-05-11T21:58:48.222Z,13.65
2019-05-11T22:01:20.078Z,14.63
2019-05-11T22:03:48.022Z,13.95
2019-05-11T22:06:17.352Z,14.78
2019-05-11T22:08:48.245Z,18.02
2019-05-11T22:11:18.020Z,23.52
2019-05-11T22:13:48.468Z,17.17
2019-05-11T22:16:17.613Z,14.93
2019-05-11T22:18:48.406Z,17.30
2019-05-11T22:21:18.621Z,16.20
2019-05-11T22:23:47.486Z,14.95
2019-05-11T22:26:17.980Z,18.37
2019-05-11T22:28:48.135Z,19.67
2019-05-11T22:31:18.332Z,19.02
2019-05-11T22:33:48.015Z,18.77
2019-05-11T22:36:17.169Z,17.77
2019-05-11T22:38:48.157Z,16.17
2019-05-11T22:41:18.034Z,16.20
2019-05-11T22:43:48.536Z,16.85
2019-05-11T22:46:17.738Z,16.82
2019-05-11T22:48:48.914Z,15.53
2019-05-11T22:51:18.311Z,16.80
2019-05-11T22:53:50.273Z,15.30
2019-05-11T22:56:19.939Z,15.70
2019-05-11T22:58:49.988Z,14.95
2019-05-11T23:01:19.539Z,15.60
2019-05-11T23:03:48.457Z,15.83
2019-05-11T23:06:18.054Z,15.63
2019-05-11T23:08:52.178Z,15.03
2019-05-11T23:11:18.511Z,15.85
2019-05-11T23:13:47.862Z,15.38
2019-05-11T23:16:17.952Z,14.73
2019-05-11T23:18:48.092Z,15.35
2019-05-11T23:21:17.214Z,14.13
2019-05-11T23:23:48.592Z,13.80
2019-05-11T23:26:18.031Z,14.75
2019-05-11T23:28:48.647Z,13.18
2019-05-11T23:31:17.289Z,14.45
2019-05-11T23:33:46.988Z,14.05
2019-05-11T23:36:15.599Z,15.08
2019-05-11T23:38:44.657Z,14.35
2019-05-11T23:41:24.064Z,13.80
2019-05-11T23:43:47.694Z,14.53
2019-05-11T23:46:17.630Z,13.78
2019-05-11T23:48:48.695Z,14.15
2019-05-11T23:51:18.192Z,13.55
2019-05-11T23:53:47.969Z,13.93
2019-05-11T23:56:17.458Z,14.40
2019-05-11T23:58:48.234Z,15.28
